Time;durP1;ratioP1;P1;durP2;ratioP2;P2;SDS_P1;SDS_P2;PMS_P1;PMS_P2;Temp;Humidity;BMP_temperature;BMP_pressure;BME280_temperature;BME280_humidity;BME280_pressure;Samples;Min_cycle;Max_cycle;Signal;HPM_P1;HPM_P2
2021/12/21 00:01:50;;;;;;;10.02;6.00;;;;;;;0.56;86.17;101076.50;10455464;28;20053;-71
2021/12/21 00:06:52;;;;;;;12.48;7.57;;;;;;;0.61;86.59;101080.94;10455708;28;20049;-71
2021/12/21 00:11:53;;;;;;;11.23;7.45;;;;;;;0.54;87.06;101073.00;10456564;28;20110;-71
2021/12/21 00:17:15;;;;;;;11.18;8.43;;;;;;;0.42;88.22;101063.22;10461926;28;20041;-71
2021/12/21 00:27:37;;;;;;;9.25;8.13;;;;;;;0.35;89.60;101069.94;10463668;28;20048;-72
2021/12/21 00:32:38;;;;;;;11.43;10.10;;;;;;;0.32;89.77;101069.00;10445225;28;20049;-72
2021/12/21 00:37:41;;;;;;;10.75;8.75;;;;;;;0.28;90.01;101067.16;10462959;28;20556;-69
2021/12/21 00:42:43;;;;;;;15.77;10.07;;;;;;;0.30;90.40;101066.34;10462904;28;20045;-71
2021/12/21 00:47:48;;;;;;;11.77;9.15;;;;;;;0.38;90.42;101067.44;10462861;28;20526;-71
2021/12/21 00:52:52;;;;;;;16.25;9.38;;;;;;;0.31;90.98;101068.13;10463116;28;20049;-71
2021/12/21 00:57:53;;;;;;;13.63;9.95;;;;;;;0.36;90.65;101065.66;10462295;28;20044;-71
2021/12/21 01:02:57;;;;;;;11.13;9.25;;;;;;;0.57;89.11;101071.34;10462219;28;20048;-71
2021/12/21 01:08:02;;;;;;;19.95;10.73;;;;;;;0.52;89.17;101070.38;10461156;28;20118;-71
2021/12/21 01:18:15;;;;;;;12.48;9.90;;;;;;;0.54;90.05;101065.25;10443352;28;20102;-70
2021/12/21 01:28:33;;;;;;;16.20;11.75;;;;;;;0.52;89.43;101064.31;10460112;28;20103;-71
2021/12/21 01:33:49;;;;;;;16.80;12.17;;;;;;;0.63;89.04;101065.47;10461653;28;20095;-71
2021/12/21 01:39:00;;;;;;;22.10;12.77;;;;;;;0.83;87.83;101058.19;10461009;28;20044;-71
2021/12/21 01:54:35;;;;;;;17.80;14.52;;;;;;;0.48;89.56;101048.72;10460254;28;20049;-71
2021/12/21 01:59:37;;;;;;;17.85;14.27;;;;;;;0.69;88.54;101045.78;10459015;28;20096;-71
2021/12/21 02:04:40;;;;;;;16.27;13.50;;;;;;;0.71;87.67;101041.53;10440882;28;20041;-70
2021/12/21 02:09:42;;;;;;;16.65;14.60;;;;;;;0.62;88.58;101032.66;10441074;28;20049;-70
2021/12/21 02:14:55;;;;;;;21.45;13.35;;;;;;;0.89;86.87;101028.16;10458577;28;20045;-70
2021/12/21 02:20:42;;;;;;;17.00;13.55;;;;;;;0.96;86.26;101006.75;10440271;28;20045;-70
2021/12/21 02:30:31;;;;;;;21.85;14.18;;;;;;;0.69;87.67;101003.53;10458766;28;20478;-70
2021/12/21 02:35:33;;;;;;;22.33;15.00;;;;;;;0.69;87.46;100998.34;10439983;28;20060;-70
2021/12/21 02:40:34;;;;;;;21.10;14.32;;;;;;;0.83;86.77;101002.13;10439863;28;20049;-71
2021/12/21 02:45:38;;;;;;;21.08;14.15;;;;;;;0.77;86.79;100991.63;10441164;28;20086;-71
2021/12/21 02:50:41;;;;;;;16.08;14.27;;;;;;;0.71;86.94;100984.63;10440192;28;20056;-71
2021/12/21 02:55:43;;;;;;;20.55;14.65;;;;;;;0.60;87.18;100978.31;10457272;22;20024;-74
2021/12/21 03:00:47;;;;;;;23.83;15.10;;;;;;;0.65;86.41;100981.88;10542588;28;20117;-72
2021/12/21 03:05:53;;;;;;;17.45;15.10;;;;;;;0.72;86.10;100975.13;10542626;28;20128;-72
2021/12/21 03:11:03;;;;;;;20.02;16.13;;;;;;;0.66;86.45;100967.22;10542165;28;20174;-72
2021/12/21 03:16:05;;;;;;;18.63;15.52;;;;;;;0.72;86.45;100970.81;10523025;28;20044;-72
2021/12/21 03:21:07;;;;;;;23.58;17.63;;;;;;;0.44;87.25;100974.50;10541212;28;20104;-72
2021/12/21 03:26:09;;;;;;;20.05;18.10;;;;;;;0.37;88.74;100971.72;10540895;28;20047;-71
2021/12/21 03:31:10;;;;;;;28.13;20.17;;;;;;;0.37;88.71;100967.41;10541105;28;20093;-73
2021/12/21 03:36:13;;;;;;;21.10;18.90;;;;;;;0.44;88.38;100958.97;10522095;28;20493;-72
2021/12/21 03:41:17;;;;;;;22.55;18.63;;;;;;;0.31;88.44;100963.78;10541294;28;20064;-72
2021/12/21 03:46:18;;;;;;;20.58;18.27;;;;;;;0.29;88.85;100971.50;10540065;28;20048;-72
2021/12/21 03:51:21;;;;;;;20.27;18.30;;;;;;;0.27;88.60;100969.72;10547065;28;20048;-73
2021/12/21 03:56:38;;;;;;;27.95;19.92;;;;;;;0.17;88.92;100974.66;10548890;28;20047;-72
2021/12/21 04:01:40;;;;;;;27.10;19.52;;;;;;;0.07;89.81;100974.38;10530171;28;20044;-72
2021/12/21 04:06:42;;;;;;;21.33;19.27;;;;;;;0.09;90.49;100972.69;10530284;28;20051;-73
2021/12/21 04:11:44;;;;;;;21.42;18.80;;;;;;;0.25;89.58;100974.84;10548626;28;20040;-73
2021/12/21 04:16:45;;;;;;;21.33;19.08;;;;;;;0.19;90.09;100969.53;10548021;28;20113;-73
2021/12/21 04:21:47;;;;;;;20.45;18.02;;;;;;;0.60;87.78;100967.94;10547929;28;20132;-73
2021/12/21 04:26:49;;;;;;;23.63;17.20;;;;;;;0.43;88.13;100974.44;10548275;28;20040;-73
2021/12/21 04:31:51;;;;;;;28.25;19.23;;;;;;;0.43;88.90;100972.72;10547516;28;20113;-73
2021/12/21 04:36:52;;;;;;;22.83;18.42;;;;;;;0.32;89.66;100974.19;10547557;28;20043;-72
2021/12/21 04:41:56;;;;;;;21.70;18.58;;;;;;;0.21;90.55;100965.25;10529338;28;20048;-72
2021/12/21 04:47:05;;;;;;;24.77;17.13;;;;;;;0.29;90.01;100963.75;10547234;28;20065;-73
2021/12/21 04:52:07;;;;;;;29.58;17.33;;;;;;;0.16;90.52;100969.44;10547422;28;20080;-72
2021/12/21 04:57:08;;;;;;;28.25;17.55;;;;;;;0.13;90.92;100962.47;10528665;28;20497;-72
2021/12/21 05:02:10;;;;;;;19.90;17.55;;;;;;;0.17;90.95;100973.78;10546828;28;20052;-72
2021/12/21 05:07:15;;;;;;;23.48;18.10;;;;;;;0.20;90.91;100963.53;10546084;28;20085;-72
2021/12/21 05:12:17;;;;;;;27.35;17.75;;;;;;;0.37;90.61;100971.72;10545899;28;20493;-72
2021/12/21 05:17:19;;;;;;;30.73;18.38;;;;;;;0.38;90.08;100963.97;10547651;28;20047;-73
2021/12/21 05:22:21;;;;;;;20.13;16.63;;;;;;;0.23;90.75;100969.66;10546068;28;20524;-73
2021/12/21 05:27:23;;;;;;;21.35;16.20;;;;;;;0.64;87.93;100968.91;10546284;28;20037;-72
2021/12/21 05:32:25;;;;;;;19.58;17.83;;;;;;;0.72;87.22;100968.25;10527587;28;20056;-73
2021/12/21 05:37:26;;;;;;;21.73;18.85;;;;;;;0.60;87.21;100965.38;10528331;28;20393;-72
2021/12/21 05:42:28;;;;;;;27.30;19.90;;;;;;;0.30;88.55;100981.00;10526546;28;20235;-73
2021/12/21 05:47:30;;;;;;;24.08;21.20;;;;;;;0.40;88.08;100970.06;10544396;28;20040;-74
2021/12/21 05:52:31;;;;;;;25.02;18.83;;;;;;;0.87;84.86;100957.34;10526808;28;20051;-73
2021/12/21 05:57:33;;;;;;;19.73;17.73;;;;;;;0.72;85.43;100960.47;10526046;28;20044;-72
2021/12/21 06:02:35;;;;;;;24.17;17.50;;;;;;;0.65;85.60;100958.56;10525464;28;20058;-72
2021/12/21 06:07:37;;;;;;;23.70;18.67;;;;;;;0.63;84.86;100943.88;10524929;28;20566;-73
2021/12/21 06:23:54;;;;;;;16.85;14.50;;;;;;;0.62;83.95;100921.41;10542141;28;20046;-73
2021/12/21 06:28:51;;;;;;;15.68;13.85;;;;;;;0.40;85.00;100936.44;10524107;28;20052;-74
2021/12/21 06:33:53;;;;;;;19.48;16.73;;;;;;;0.13;85.88;100954.72;10525643;28;20051;-73
2021/12/21 06:38:54;;;;;;;19.98;17.25;;;;;;;0.24;86.06;100963.63;10542773;28;20423;-74
2021/12/21 06:43:56;;;;;;;26.52;17.42;;;;;;;0.26;86.84;100963.66;10524084;28;20044;-73
2021/12/21 06:54:19;;;;;;;20.63;17.15;;;;;;;0.23;85.80;100976.53;10543072;28;20040;-73
2021/12/21 06:59:21;;;;;;;21.05;16.23;;;;;;;0.27;85.54;100977.47;10542337;28;20109;-73
2021/12/21 07:04:24;;;;;;;17.65;15.93;;;;;;;0.08;86.46;100970.97;10542250;28;20048;-72
2021/12/21 07:09:36;;;;;;;19.60;16.85;;;;;;;-0.14;87.63;100969.53;10541614;28;20044;-73
2021/12/21 07:19:58;;;;;;;20.60;17.58;;;;;;;-0.14;88.13;101001.41;10542088;28;20062;-72
2021/12/21 07:25:00;;;;;;;23.08;18.30;;;;;;;0.04;88.99;100998.44;10522459;28;20044;-74
2021/12/21 07:30:02;;;;;;;20.23;18.23;;;;;;;0.16;88.37;101006.53;10523905;28;20436;-72
2021/12/21 07:35:05;;;;;;;25.80;20.02;;;;;;;-0.07;89.42;101008.50;10539946;28;20451;-72
2021/12/21 07:40:08;;;;;;;23.45;20.65;;;;;;;-0.22;90.52;101017.53;10541446;28;20055;-72
2021/12/21 07:45:09;;;;;;;28.30;20.55;;;;;;;0.04;90.50;101026.00;10523330;28;20040;-72
2021/12/21 07:50:12;;;;;;;24.30;20.60;;;;;;;0.27;88.32;101024.91;10522838;28;20055;-72
2021/12/21 07:55:13;;;;;;;19.45;17.60;;;;;;;0.43;87.48;101016.69;10541544;28;20040;-73
2021/12/21 08:00:15;;;;;;;20.75;17.55;;;;;;;0.46;86.67;101021.06;10541518;28;20059;-74
2021/12/21 08:05:17;;;;;;;23.73;21.48;;;;;;;0.39;86.53;101025.19;10539818;28;20040;-74
2021/12/21 08:10:29;;;;;;;26.73;18.83;;;;;;;0.41;87.18;101027.84;10540766;28;20043;-72
2021/12/21 08:15:30;;;;;;;23.15;19.50;;;;;;;0.62;86.04;101041.31;10523114;28;20039;-73
2021/12/21 08:20:32;;;;;;;27.38;20.77;;;;;;;0.36;87.18;101039.78;10540687;28;20055;-73
2021/12/21 08:25:36;;;;;;;30.23;22.98;;;;;;;0.48;86.61;101040.94;10524289;28;20066;-73
2021/12/21 08:30:41;;;;;;;42.05;26.35;;;;;;;0.38;87.22;101046.75;10541848;28;20051;-71
2021/12/21 08:35:44;;;;;;;40.17;26.30;;;;;;;0.35;87.83;101054.41;10544070;28;20040;-72
2021/12/21 08:40:49;;;;;;;38.75;27.42;;;;;;;0.19;88.21;101058.31;10548911;28;20105;-73
2021/12/21 08:45:52;;;;;;;36.83;25.92;;;;;;;0.19;88.66;101050.56;10531032;28;20180;-72
2021/12/21 08:50:57;;;;;;;41.72;29.48;;;;;;;0.06;89.54;101064.00;10547265;28;20042;-71
2021/12/21 08:55:59;;;;;;;37.00;26.02;;;;;;;0.26;88.05;101064.50;10546989;28;20043;-72
2021/12/21 09:01:03;;;;;;;36.47;26.13;;;;;;;0.35;87.19;101061.28;10551239;28;20051;-75
2021/12/21 09:06:04;;;;;;;42.03;27.90;;;;;;;0.20;88.24;101062.66;10532936;28;20052;-74
2021/12/21 09:11:06;;;;;;;52.80;29.40;;;;;;;0.21;88.38;101053.19;10551110;28;20055;-74
2021/12/21 09:16:07;;;;;;;37.38;24.60;;;;;;;0.42;87.21;101051.16;10532019;28;20115;-74
2021/12/21 09:21:09;;;;;;;42.15;25.60;;;;;;;0.48;86.62;101053.00;10531998;28;20101;-74
2021/12/21 09:26:11;;;;;;;35.45;24.98;;;;;;;0.57;85.54;101067.91;10549222;28;20040;-74
2021/12/21 09:31:13;;;;;;;24.08;21.10;;;;;;;0.55;85.55;101064.41;10549272;28;20044;-74
2021/12/21 09:36:14;;;;;;;28.70;20.23;;;;;;;0.69;84.82;101058.72;10549705;28;20413;-75
2021/12/21 09:41:18;;;;;;;24.70;20.23;;;;;;;0.52;85.22;101056.56;10549766;28;20048;-74
2021/12/21 09:46:20;;;;;;;26.90;19.67;;;;;;;0.74;83.97;101053.66;10548895;28;20101;-74
2021/12/21 09:51:21;;;;;;;18.85;16.50;;;;;;;0.70;83.24;101057.88;10531727;28;20109;-74
2021/12/21 09:56:23;;;;;;;14.68;13.07;;;;;;;0.93;81.59;101042.94;10531263;28;20486;-75
2021/12/21 10:01:25;;;;;;;18.27;14.45;;;;;;;0.92;82.30;101050.63;10531003;28;20105;-75
2021/12/21 10:06:27;;;;;;;18.40;16.27;;;;;;;0.94;82.25;101046.41;10531757;28;20094;-74
2021/12/21 10:11:28;;;;;;;19.17;16.65;;;;;;;1.13;82.01;101039.91;10531683;28;20089;-74
2021/12/21 10:16:30;;;;;;;19.77;14.00;;;;;;;1.12;80.94;101033.88;10531140;28;20047;-74
2021/12/21 10:21:45;;;;;;;17.00;12.55;;;;;;;1.16;79.40;101033.09;10549824;28;20054;-75
2021/12/21 10:26:47;;;;;;;25.30;13.63;;;;;;;1.00;79.73;101037.03;10549821;28;20042;-74
2021/12/21 10:31:49;;;;;;;15.75;14.20;;;;;;;1.00;80.30;101037.03;10530917;28;20070;-74
2021/12/21 10:36:51;;;;;;;20.25;14.30;;;;;;;0.98;79.93;101038.72;10548782;28;20088;-74
2021/12/21 10:41:56;;;;;;;14.63;13.15;;;;;;;0.99;81.11;101031.84;10530819;28;20047;-74
2021/12/21 10:46:58;;;;;;;14.65;12.07;;;;;;;0.99;79.49;101024.94;10549910;28;20390;-74
2021/12/21 10:52:13;;;;;;;15.95;12.43;;;;;;;0.99;80.47;101026.66;10550301;28;20414;-74
2021/12/21 10:57:31;;;;;;;14.50;10.77;;;;;;;1.12;77.95;101026.09;10546599;28;20468;-75
2021/12/21 11:02:37;;;;;;;14.15;11.32;;;;;;;0.99;79.59;101027.53;10528136;28;20075;-76
2021/12/21 11:07:55;;;;;;;13.90;10.00;;;;;;;1.22;77.62;101012.50;10527434;28;20143;-75
2021/12/21 11:13:07;;;;;;;13.75;11.13;;;;;;;1.00;80.07;101010.28;10529945;28;20112;-76
2021/12/21 11:18:13;;;;;;;12.02;10.73;;;;;;;1.11;78.18;101001.06;10545403;28;20074;-74
2021/12/21 11:23:17;;;;;;;11.65;10.45;;;;;;;1.27;78.07;100995.34;10527593;28;20088;-75
2021/12/21 11:28:27;;;;;;;15.20;11.05;;;;;;;1.18;78.96;101002.91;10508948;28;20126;-75
2021/12/21 11:33:34;;;;;;;13.63;12.20;;;;;;;1.21;78.79;100996.94;10544218;28;20447;-74
2021/12/21 11:38:36;;;;;;;10.60;9.68;;;;;;;1.32;77.37;100992.84;10543750;28;20127;-75
2021/12/21 11:43:54;;;;;;;13.23;9.90;;;;;;;1.26;77.77;100985.81;10509885;28;20101;-74
2021/12/21 11:49:02;;;;;;;12.15;9.02;;;;;;;1.45;76.41;100984.47;10541309;28;20040;-74
2021/12/21 11:54:15;;;;;;;11.05;9.75;;;;;;;1.25;77.77;100988.41;10525156;28;20043;-74
2021/12/21 11:59:22;;;;;;;9.38;8.48;;;;;;;1.17;77.07;100980.44;10508864;28;20105;-74
2021/12/21 12:04:24;;;;;;;16.70;9.50;;;;;;;0.97;78.05;100974.84;10550303;28;20040;-75
2021/12/21 12:09:29;;;;;;;12.07;9.45;;;;;;;1.07;78.35;100975.06;10568681;28;20067;-75
2021/12/21 12:14:35;;;;;;;12.23;8.60;;;;;;;1.08;77.81;100980.25;10559090;28;20105;-75
2021/12/21 12:19:38;;;;;;;8.77;8.00;;;;;;;1.23;76.27;100972.81;10559256;28;20047;-74
2021/12/21 12:24:45;;;;;;;11.05;8.85;;;;;;;1.28;76.52;100962.53;10552652;28;20067;-75
2021/12/21 12:29:54;;;;;;;10.73;9.13;;;;;;;1.30;76.47;100962.59;10534052;28;20109;-75
2021/12/21 12:35:26;;;;;;;11.38;10.05;;;;;;;1.23;77.90;100961.56;10553437;28;20039;-76
2021/12/21 12:40:43;;;;;;;10.10;9.18;;;;;;;1.35;76.14;100967.00;10574690;28;20134;-75
2021/12/21 12:46:03;;;;;;;12.02;10.30;;;;;;;1.39;75.94;100961.06;10594180;28;20408;-74
2021/12/21 12:51:06;;;;;;;12.48;10.90;;;;;;;1.41;75.44;100958.47;10595113;28;20079;-75
2021/12/21 12:56:14;;;;;;;12.77;11.52;;;;;;;1.25;76.97;100959.91;10593638;28;20167;-72
2021/12/21 13:01:21;;;;;;;12.07;10.95;;;;;;;1.39;75.82;100965.38;10526663;28;20048;-75
2021/12/21 13:06:33;;;;;;;13.20;12.05;;;;;;;1.41;76.18;100959.34;10514089;28;20409;-74
2021/12/21 13:11:37;;;;;;;14.43;13.02;;;;;;;1.26;76.81;100959.06;10551748;28;20044;-74
2021/12/21 13:16:40;;;;;;;14.60;13.18;;;;;;;0.92;79.08;100965.22;10531638;28;20085;-74
2021/12/21 13:21:51;;;;;;;15.63;14.23;;;;;;;0.93;79.76;100967.88;10530289;28;20076;-75
2021/12/21 13:26:55;;;;;;;24.23;16.58;;;;;;;1.04;79.34;100969.81;10531747;28;20044;-74
2021/12/21 13:32:00;;;;;;;20.45;15.02;;;;;;;1.16;78.36;100980.44;10550703;28;20535;-74
2021/12/21 13:37:06;;;;;;;13.85;12.05;;;;;;;0.98;79.04;100971.41;10532087;28;20101;-75
2021/12/21 13:42:20;;;;;;;14.77;11.87;;;;;;;1.11;78.33;100980.34;10550590;28;20079;-76
2021/12/21 13:47:29;;;;;;;18.83;11.80;;;;;;;1.11;79.09;100979.47;10531989;28;20051;-74
2021/12/21 13:52:41;;;;;;;16.92;13.27;;;;;;;1.24;77.95;100990.13;10549414;28;20046;-74
2021/12/21 13:57:42;;;;;;;14.65;11.43;;;;;;;1.07;78.03;100981.09;10549204;28;20488;-74
2021/12/21 14:03:00;;;;;;;14.13;12.73;;;;;;;0.94;79.27;100982.53;10531428;28;20051;-75
2021/12/21 14:08:02;;;;;;;18.10;14.35;;;;;;;0.89;79.49;100983.28;10549947;28;20056;-74
2021/12/21 14:13:04;;;;;;;15.32;13.00;;;;;;;1.06;78.54;100979.34;10574041;28;20051;-74
2021/12/21 14:18:29;;;;;;;14.00;12.70;;;;;;;1.17;78.13;100971.81;10551288;28;20069;-74
2021/12/21 14:23:33;;;;;;;16.27;13.05;;;;;;;1.10;78.82;100975.97;10551807;28;20081;-75
2021/12/21 14:28:47;;;;;;;18.55;14.07;;;;;;;1.04;78.91;100985.34;10551032;28;20043;-75
2021/12/21 14:33:54;;;;;;;13.57;12.18;;;;;;;1.08;78.24;100992.34;10550516;28;20493;-75
2021/12/21 14:38:58;;;;;;;10.43;9.53;;;;;;;1.20;78.22;100990.03;10549831;28;20044;-75
2021/12/21 14:44:10;;;;;;;14.93;13.13;;;;;;;1.03;79.98;100981.00;10549999;28;20309;-75
2021/12/21 14:49:12;;;;;;;15.02;13.27;;;;;;;1.31;78.03;100979.88;10548548;28;20040;-74
2021/12/21 14:54:23;;;;;;;14.55;13.10;;;;;;;1.12;78.98;100976.91;10529724;28;20036;-73
2021/12/21 14:59:34;;;;;;;15.30;13.85;;;;;;;1.12;79.12;100978.63;10537611;22;20370;-71
2021/12/21 15:04:41;;;;;;;15.30;13.95;;;;;;;0.86;80.81;100980.63;10503781;28;20406;-70
2021/12/21 15:09:42;;;;;;;21.75;16.52;;;;;;;0.74;80.98;100983.78;10501867;28;20040;-70
2021/12/21 15:14:44;;;;;;;21.15;16.35;;;;;;;0.66;82.44;100978.44;10502703;28;20444;-70
2021/12/21 15:19:46;;;;;;;16.83;14.88;;;;;;;0.58;82.53;100980.00;10521541;28;20093;-69
2021/12/21 15:24:50;;;;;;;16.75;14.23;;;;;;;0.53;82.58;100986.75;10515798;28;20044;-70
2021/12/21 15:29:52;;;;;;;16.33;14.77;;;;;;;0.55;82.49;100991.97;10504104;28;20102;-69
2021/12/21 15:34:58;;;;;;;18.15;14.60;;;;;;;0.74;81.81;100991.56;10530138;28;20067;-69
2021/12/21 15:40:03;;;;;;;20.00;14.87;;;;;;;0.63;82.22;100983.56;10546550;28;20040;-69
2021/12/21 15:45:07;;;;;;;15.85;14.25;;;;;;;0.58;82.88;100980.00;10545271;28;20048;-69
2021/12/21 15:50:11;;;;;;;17.63;15.75;;;;;;;0.71;82.32;100989.78;10534038;28;20513;-70
2021/12/21 15:55:16;;;;;;;23.75;16.75;;;;;;;0.64;82.46;100990.47;10501651;28;20045;-69
2021/12/21 16:00:20;;;;;;;19.38;17.58;;;;;;;0.31;84.34;100999.97;10500862;28;20044;-69
2021/12/21 16:05:21;;;;;;;20.92;18.73;;;;;;;0.17;85.18;100999.63;10496729;28;20101;-70
2021/12/21 16:10:23;;;;;;;20.55;17.90;;;;;;;0.07;85.43;101005.41;10496246;28;20048;-69
2021/12/21 16:15:24;;;;;;;19.50;17.48;;;;;;;0.08;85.75;101007.16;10496683;28;20055;-69
2021/12/21 16:20:26;;;;;;;20.33;18.48;;;;;;;0.20;85.58;101004.91;10496202;28;20406;-70
2021/12/21 16:25:28;;;;;;;22.92;17.88;;;;;;;0.15;85.79;101020.28;10498987;28;20048;-69
2021/12/21 16:30:35;;;;;;;24.77;18.77;;;;;;;0.25;85.22;101018.81;10537756;28;20052;-69
2021/12/21 16:35:38;;;;;;;;;;;;;;;0.16;86.26;101021.16;10521149;28;20044;-69
2021/12/21 16:40:41;;;;;;;30.00;21.58;;;;;;;0.26;85.53;101033.47;10519662;28;19930;-70
2021/12/21 16:45:44;;;;;;;24.90;19.90;;;;;;;0.19;85.58;101034.19;10520352;28;20147;-70
2021/12/21 16:50:46;;;;;;;22.30;19.95;;;;;;;0.10;86.99;101031.34;10537872;28;20052;-69
2021/12/21 16:55:47;;;;;;;33.72;22.27;;;;;;;-0.04;86.66;101039.63;10540434;28;20089;-70
2021/12/21 17:00:51;;;;;;;29.38;21.58;;;;;;;0.08;86.42;101033.88;10544910;28;20043;-70
2021/12/21 17:05:54;;;;;;;29.15;23.38;;;;;;;0.08;86.53;101039.03;10545200;28;20052;-70
2021/12/21 17:10:56;;;;;;;24.73;20.92;;;;;;;0.27;84.99;101039.53;10545798;28;20036;-70
2021/12/21 17:15:57;;;;;;;36.25;24.00;;;;;;;0.03;85.91;101040.63;10544701;28;20036;-70
2021/12/21 17:20:59;;;;;;;29.65;21.63;;;;;;;-0.04;86.28;101033.56;10545965;28;20447;-71
2021/12/21 17:26:00;;;;;;;21.50;19.38;;;;;;;0.44;83.58;101027.91;10504154;28;20048;-70
2021/12/21 17:31:03;;;;;;;22.83;18.15;;;;;;;0.61;82.53;101029.19;10505891;28;20045;-70
2021/12/21 17:36:14;;;;;;;24.45;21.00;;;;;;;0.59;81.80;101020.53;10506102;28;20136;-70
2021/12/21 17:41:16;;;;;;;50.75;34.47;;;;;;;0.06;84.39;101025.22;10488053;28;20106;-70
2021/12/21 17:46:21;;;;;;;28.50;23.38;;;;;;;-0.10;86.11;101017.88;10488241;28;20051;-70
2021/12/21 17:51:23;;;;;;;26.55;20.15;;;;;;;0.48;83.31;101024.56;10505032;28;20044;-69
2021/12/21 17:56:25;;;;;;;27.27;20.98;;;;;;;0.13;84.24;101023.66;10473692;28;20091;-71
2021/12/21 18:01:27;;;;;;;29.98;21.10;;;;;;;0.32;83.22;101031.06;10467506;28;20040;-71
2021/12/21 18:06:28;;;;;;;27.02;20.35;;;;;;;0.40;82.91;101032.16;10465239;28;20115;-71
2021/12/21 18:11:30;;;;;;;32.63;22.98;;;;;;;0.16;83.88;101028.91;10466031;28;20041;-70
2021/12/21 18:16:33;;;;;;;31.55;24.33;;;;;;;-0.11;84.99;101029.94;10465379;28;20055;-71
2021/12/21 18:21:35;;;;;;;31.02;24.70;;;;;;;-0.32;86.69;101040.53;10464200;28;20041;-69
2021/12/21 18:26:38;;;;;;;41.35;25.83;;;;;;;-0.42;87.22;101037.66;10446308;28;20041;-70
2021/12/21 18:31:42;;;;;;;32.70;24.17;;;;;;;-0.49;87.49;101039.16;10460970;28;20061;-70
2021/12/21 18:36:45;;;;;;;34.90;23.85;;;;;;;-0.59;87.62;101042.31;10462906;28;20044;-71
2021/12/21 18:41:46;;;;;;;38.13;26.08;;;;;;;-0.61;87.87;101041.41;10459807;28;20049;-70
2021/12/21 18:46:51;;;;;;;31.20;23.67;;;;;;;-0.66;88.01;101041.28;10457414;28;20099;-70
2021/12/21 18:51:53;;;;;;;33.92;24.25;;;;;;;-0.37;86.39;101034.38;10442829;28;20048;-69
2021/12/21 18:56:54;;;;;;;39.00;27.75;;;;;;;-0.54;86.92;101038.16;10507514;28;20040;-70
2021/12/21 19:01:56;;;;;;;37.17;26.45;;;;;;;-0.61;86.72;101056.91;10540266;28;20040;-71
2021/12/21 19:06:58;;;;;;;38.30;26.38;;;;;;;-0.81;87.58;101057.16;10517850;28;20049;-70
2021/12/21 19:11:59;;;;;;;47.00;28.25;;;;;;;-0.90;87.77;101066.34;10500820;28;20119;-69
2021/12/21 19:17:01;;;;;;;36.85;26.55;;;;;;;-0.94;88.69;101070.53;10499631;28;20412;-71
2021/12/21 19:22:03;;;;;;;41.53;27.10;;;;;;;-0.94;88.96;101074.81;10493424;28;20047;-69
2021/12/21 19:27:05;;;;;;;42.55;27.45;;;;;;;-0.97;89.26;101072.13;10537904;28;20044;-69
2021/12/21 19:32:07;;;;;;;39.83;28.10;;;;;;;-0.97;89.37;101077.28;10486375;28;20049;-69
2021/12/21 19:37:08;;;;;;;47.38;29.13;;;;;;;-0.93;89.57;101080.03;10503488;28;20060;-69
2021/12/21 19:42:11;;;;;;;44.13;28.73;;;;;;;-0.94;90.04;101078.28;10503434;28;20113;-69
2021/12/21 19:47:13;;;;;;;53.72;31.55;;;;;;;-0.74;89.59;101083.19;10485470;28;20036;-69
2021/12/21 19:52:15;;;;;;;58.22;33.28;;;;;;;-0.76;90.11;101090.88;10502447;28;20474;-69
2021/12/21 19:57:17;;;;;;;59.55;31.90;;;;;;;-0.79;90.91;101091.69;10501517;28;20405;-69
2021/12/21 20:02:18;;;;;;;72.55;35.22;;;;;;;-0.84;91.69;101094.91;10499202;28;20110;-68
2021/12/21 20:07:20;;;;;;;65.65;33.72;;;;;;;-0.73;90.81;101096.13;10500217;28;20093;-69
2021/12/21 20:12:28;;;;;;;54.90;31.83;;;;;;;-0.78;91.08;101089.97;10481111;28;20079;-69
2021/12/21 20:17:30;;;;;;;;;;;;;;;-0.64;91.04;101088.69;10480487;28;20111;-69
2021/12/21 20:22:32;;;;;;;57.22;32.20;;;;;;;-0.16;88.17;101078.03;10497864;28;19920;-68
2021/12/21 20:27:34;;;;;;;41.90;29.40;;;;;;;-0.34;87.27;101090.44;10497695;28;20041;-69
2021/12/21 20:32:35;;;;;;;69.40;32.42;;;;;;;-0.67;89.49;101092.88;10501730;28;20123;-68
2021/12/21 20:37:38;;;;;;;53.70;31.65;;;;;;;-0.76;90.82;101096.03;10505363;28;20386;-68
2021/12/21 20:42:39;;;;;;;55.33;30.33;;;;;;;-0.70;90.54;101096.25;10504951;28;20040;-70
2021/12/21 20:47:41;;;;;;;50.75;29.83;;;;;;;-0.70;90.76;101091.09;10504240;28;20106;-69
2021/12/21 20:52:43;;;;;;;47.47;28.60;;;;;;;-0.75;90.37;101102.97;10504672;28;20406;-69
2021/12/21 20:57:46;;;;;;;39.88;27.90;;;;;;;-0.77;90.33;101100.31;10486809;28;20327;-70
2021/12/21 21:02:47;;;;;;;55.17;28.17;;;;;;;-0.82;89.67;101099.31;10539976;22;20048;-72
2021/12/21 21:07:49;;;;;;;40.08;27.05;;;;;;;-0.75;89.69;101110.72;10530667;28;20046;-71
2021/12/21 21:12:51;;;;;;;38.22;25.63;;;;;;;-0.73;89.18;101106.47;10549270;28;20467;-72
2021/12/21 21:17:54;;;;;;;36.85;26.83;;;;;;;-0.63;88.90;101108.50;10548818;28;20040;-72
2021/12/21 21:22:57;;;;;;;43.30;28.20;;;;;;;-0.57;88.06;101113.88;10548788;28;20044;-71
2021/12/21 21:27:59;;;;;;;42.15;27.08;;;;;;;-0.62;88.45;101114.53;10547770;28;20451;-72
2021/12/21 21:33:01;;;;;;;45.55;27.92;;;;;;;-0.60;88.09;101129.25;10547822;28;20052;-71
2021/12/21 21:38:03;;;;;;;41.13;27.33;;;;;;;-0.66;89.13;101129.06;10547583;28;20447;-71
2021/12/21 21:43:04;;;;;;;42.72;28.48;;;;;;;-0.70;87.79;101128.94;10547387;28;20051;-71
2021/12/21 21:48:06;;;;;;;49.60;28.88;;;;;;;-0.83;88.83;101127.66;10546559;28;20051;-71
2021/12/21 21:53:19;;;;;;;45.05;27.60;;;;;;;-0.84;88.98;101142.28;10545643;28;20040;-70
2021/12/21 21:58:20;;;;;;;42.05;27.70;;;;;;;-0.78;88.77;101146.75;10545963;28;20043;-71
2021/12/21 22:03:22;;;;;;;54.17;28.80;;;;;;;-0.84;88.56;101151.72;10545368;28;20047;-71
2021/12/21 22:08:24;;;;;;;49.42;26.52;;;;;;;-0.80;88.31;101153.56;10545335;28;20040;-72
2021/12/21 22:13:30;;;;;;;42.95;27.10;;;;;;;-0.81;88.42;101164.72;10545620;28;20461;-71
2021/12/21 22:18:32;;;;;;;46.67;27.23;;;;;;;-0.81;88.22;101165.59;10545341;28;20040;-71
2021/12/21 22:23:36;;;;;;;54.38;27.40;;;;;;;-0.84;88.15;101162.03;10544647;28;20055;-71
2021/12/21 22:28:38;;;;;;;52.40;28.33;;;;;;;-0.97;89.08;101176.28;10544527;28;20064;-72
2021/12/21 22:33:42;;;;;;;44.92;27.80;;;;;;;-0.84;88.86;101177.53;10526582;28;20065;-70
2021/12/21 22:38:46;;;;;;;43.25;27.35;;;;;;;-0.98;89.54;101168.44;10544123;28;20048;-71
2021/12/21 22:43:48;;;;;;;51.60;28.73;;;;;;;-1.00;89.91;101183.03;10544706;28;20490;-72
2021/12/21 22:48:50;;;;;;;48.90;28.85;;;;;;;-0.63;88.48;101182.50;10543851;28;20043;-71
2021/12/21 22:53:52;;;;;;;43.25;27.23;;;;;;;-0.45;86.15;101180.50;10508468;28;20514;-71
2021/12/21 22:58:54;;;;;;;49.80;27.45;;;;;;;-0.82;87.57;101186.22;10543316;28;20442;-71
2021/12/21 23:03:56;;;;;;;43.10;26.15;;;;;;;-0.92;88.57;101186.75;10543180;28;20123;-71
2021/12/21 23:08:58;;;;;;;32.13;22.95;;;;;;;-0.98;89.10;101186.53;10543007;28;20115;-73
2021/12/21 23:14:00;;;;;;;32.35;22.83;;;;;;;-0.91;88.92;101179.03;10544078;28;20562;-72
2021/12/21 23:19:02;;;;;;;45.88;24.65;;;;;;;-1.02;88.53;101191.59;10544373;28;20040;-72
2021/12/21 23:24:05;;;;;;;30.98;21.67;;;;;;;-0.60;85.76;101186.06;10543102;28;20455;-72
2021/12/21 23:29:07;;;;;;;38.38;24.23;;;;;;;-0.87;87.70;101193.81;10543742;28;20091;-72
2021/12/21 23:34:09;;;;;;;32.97;21.88;;;;;;;-0.43;85.74;101178.84;10541613;28;20051;-71
2021/12/21 23:39:18;;;;;;;32.97;20.80;;;;;;;-0.42;84.92;101190.06;10542187;28;20066;-71
2021/12/21 23:44:20;;;;;;;30.17;19.58;;;;;;;-0.32;83.50;101198.13;10541820;28;20102;-72
2021/12/21 23:49:22;;;;;;;26.98;20.13;;;;;;;-0.45;84.71;101196.00;10522908;28;20493;-72
2021/12/21 23:54:23;;;;;;;29.10;19.98;;;;;;;-0.35;83.79;101192.91;10541960;28;20386;-72